createdAt,value
2023-03-03T00:00:38.540Z,99116.00
2023-03-03T00:02:43.992Z,99112.56
2023-03-03T00:04:48.901Z,99113.66
2023-03-03T00:06:53.867Z,99108.66
2023-03-03T00:08:59.123Z,99105.75
2023-03-03T00:11:06.210Z,99108.59
2023-03-03T00:13:19.213Z,99115.22
2023-03-03T00:15:27.141Z,99108.81
2023-03-03T00:17:36.525Z,99104.59
2023-03-03T00:19:47.362Z,99107.63
2023-03-03T00:21:53.830Z,99102.50
2023-03-03T00:24:23.821Z,99106.47
2023-03-03T00:26:37.405Z,99108.22
2023-03-03T00:28:49.151Z,99113.38
2023-03-03T00:30:55.511Z,99114.78
2023-03-03T00:33:02.979Z,99105.50
2023-03-03T00:35:28.819Z,99107.03
2023-03-03T00:37:37.605Z,99115.03
2023-03-03T00:39:42.622Z,99119.19
2023-03-03T00:41:48.345Z,99123.59
2023-03-03T00:43:54.628Z,99112.94
2023-03-03T00:46:01.015Z,99122.59
2023-03-03T00:48:29.634Z,99130.50
2023-03-03T00:50:37.663Z,99121.84
2023-03-03T00:52:47.949Z,99125.84
2023-03-03T00:54:52.876Z,99123.25
2023-03-03T00:56:57.781Z,99121.50
2023-03-03T00:59:03.214Z,99127.31
2023-03-03T01:01:08.792Z,99121.50
2023-03-03T01:03:26.613Z,99122.13
2023-03-03T01:05:32.534Z,99122.94
2023-03-03T01:07:37.776Z,99119.78
2023-03-03T01:09:42.981Z,99124.84
2023-03-03T01:11:47.908Z,99128.16
2023-03-03T01:13:55.270Z,99119.00
2023-03-03T01:16:00.868Z,99122.97
2023-03-03T01:18:06.882Z,99129.38
2023-03-03T01:20:18.229Z,99120.84
2023-03-03T01:22:23.416Z,99116.84
2023-03-03T01:24:28.694Z,99119.94
2023-03-03T01:26:33.591Z,99119.72
2023-03-03T01:28:39.388Z,99122.25
2023-03-03T01:30:44.325Z,99115.06
2023-03-03T01:32:50.992Z,99115.44
2023-03-03T01:34:57.417Z,99118.59
2023-03-03T01:37:08.549Z,99118.75
2023-03-03T01:39:14.445Z,99123.66
2023-03-03T01:41:20.262Z,99115.63
2023-03-03T01:43:26.635Z,99121.75
2023-03-03T01:45:34.230Z,99118.34
2023-03-03T01:47:40.007Z,99117.22
2023-03-03T01:49:52.443Z,99118.59
2023-03-03T01:52:01.131Z,99128.09
2023-03-03T01:54:15.154Z,99127.63
2023-03-03T01:56:21.026Z,99126.91
2023-03-03T01:58:31.955Z,99124.38
2023-03-03T02:00:39.426Z,99130.84
2023-03-03T02:02:45.872Z,99133.03
2023-03-03T02:04:53.239Z,99136.75
2023-03-03T02:07:04.378Z,99137.22
2023-03-03T02:09:21.510Z,99129.22
2023-03-03T02:11:27.231Z,99127.97
2023-03-03T02:13:32.133Z,99138.50
2023-03-03T02:15:38.635Z,99136.66
2023-03-03T02:17:44.010Z,99129.69
2023-03-03T02:19:58.414Z,99136.66
2023-03-03T02:22:06.334Z,99133.59
2023-03-03T02:24:26.981Z,99136.69
2023-03-03T02:26:38.992Z,99136.47
2023-03-03T02:28:46.738Z,99142.00
2023-03-03T02:30:51.885Z,99141.34
2023-03-03T02:32:56.776Z,99134.31
2023-03-03T02:35:01.687Z,99138.00
2023-03-03T02:37:08.259Z,99129.13
2023-03-03T02:39:20.978Z,99120.25
2023-03-03T02:41:39.395Z,99127.00
2023-03-03T02:43:56.308Z,99121.44
2023-03-03T02:46:02.828Z,99119.94
2023-03-03T02:48:08.629Z,99123.31
2023-03-03T02:50:14.719Z,99129.09
2023-03-03T02:52:19.599Z,99131.56
2023-03-03T02:54:30.585Z,99135.09
2023-03-03T02:56:39.312Z,99134.25
2023-03-03T02:58:44.640Z,99134.41
2023-03-03T03:00:50.784Z,99134.59
2023-03-03T03:03:00.446Z,99127.97
2023-03-03T03:05:06.124Z,99132.97
2023-03-03T03:07:11.877Z,99128.97
2023-03-03T03:09:19.013Z,99129.84
2023-03-03T03:11:25.428Z,99133.13
2023-03-03T03:13:33.120Z,99132.28
2023-03-03T03:15:39.290Z,99138.88
2023-03-03T03:17:44.622Z,99145.56
2023-03-03T03:19:50.614Z,99151.31
2023-03-03T03:21:55.538Z,99152.16
2023-03-03T03:24:01.137Z,99148.81
2023-03-03T03:26:09.986Z,99146.41
2023-03-03T03:30:27.357Z,99138.09
2023-03-03T03:32:32.704Z,99136.53
2023-03-03T03:34:39.043Z,99148.88
2023-03-03T03:36:47.324Z,99143.13
2023-03-03T03:38:54.353Z,99141.56
2023-03-03T03:41:01.116Z,99138.31
2023-03-03T03:43:06.076Z,99141.56
2023-03-03T03:45:15.336Z,99135.69
2023-03-03T03:47:27.052Z,99142.47
2023-03-03T03:49:33.275Z,99142.41
2023-03-03T03:51:41.650Z,99149.84
2023-03-03T03:53:49.874Z,99152.22
2023-03-03T03:55:55.289Z,99158.88
2023-03-03T03:58:00.441Z,99156.31
2023-03-03T04:00:07.747Z,99156.34
2023-03-03T04:02:18.800Z,99156.44
2023-03-03T04:04:26.797Z,99158.81
2023-03-03T04:06:32.505Z,99163.03
2023-03-03T04:08:37.665Z,99153.97
2023-03-03T04:10:43.140Z,99149.91
2023-03-03T04:12:49.756Z,99146.69
2023-03-03T04:14:56.006Z,99151.56
2023-03-03T04:17:00.983Z,99153.13
2023-03-03T04:19:05.998Z,99153.13
2023-03-03T04:21:18.534Z,99164.59
2023-03-03T04:23:25.587Z,99163.16
2023-03-03T04:25:31.760Z,99173.03
2023-03-03T04:27:37.756Z,99169.66
2023-03-03T04:29:43.849Z,99166.34
2023-03-03T04:31:49.744Z,99168.81
2023-03-03T04:33:56.953Z,99168.69
2023-03-03T04:36:02.645Z,99169.38
2023-03-03T04:38:10.924Z,99163.78
2023-03-03T04:40:18.311Z,99166.34
2023-03-03T04:42:23.247Z,99162.97
2023-03-03T04:44:28.664Z,99157.25
2023-03-03T04:46:33.782Z,99154.63
2023-03-03T04:48:39.677Z,99158.03
2023-03-03T04:50:46.341Z,99156.44
2023-03-03T04:52:51.741Z,99148.16
2023-03-03T04:55:00.241Z,99149.72
2023-03-03T04:57:06.395Z,99152.19
2023-03-03T04:59:11.861Z,99157.16
2023-03-03T05:01:18.629Z,99158.03
2023-03-03T05:03:25.662Z,99153.13
2023-03-03T05:05:30.606Z,99158.91
2023-03-03T05:07:36.249Z,99156.31
2023-03-03T05:09:41.287Z,99164.59
2023-03-03T05:11:48.751Z,99172.84
2023-03-03T05:13:54.153Z,99175.28
2023-03-03T05:16:00.143Z,99171.16
2023-03-03T05:18:05.203Z,99168.69
2023-03-03T05:20:13.889Z,99169.53
2023-03-03T05:22:19.008Z,99170.47
2023-03-03T05:24:23.996Z,99182.03
2023-03-03T05:26:28.998Z,99179.56
2023-03-03T05:28:36.839Z,99179.75
2023-03-03T05:30:42.136Z,99179.66
2023-03-03T05:32:47.481Z,99178.13
2023-03-03T05:34:52.603Z,99168.22
2023-03-03T05:36:57.866Z,99173.09
2023-03-03T05:39:02.792Z,99171.38
2023-03-03T05:41:08.264Z,99167.94
2023-03-03T05:43:13.576Z,99174.63
2023-03-03T05:45:24.309Z,99172.78
2023-03-03T05:47:29.603Z,99174.44
2023-03-03T05:49:34.927Z,99173.72
2023-03-03T05:51:40.104Z,99176.16
2023-03-03T05:53:45.815Z,99186.09
2023-03-03T05:55:50.692Z,99177.81
2023-03-03T05:57:56.336Z,99180.38
2023-03-03T06:00:01.291Z,99179.56
2023-03-03T06:02:08.802Z,99199.41
2023-03-03T06:04:14.389Z,99194.44
2023-03-03T06:06:19.336Z,99202.69
2023-03-03T06:08:24.330Z,99200.16
2023-03-03T06:10:30.275Z,99205.91
2023-03-03T06:12:39.173Z,99206.75
2023-03-03T06:14:44.130Z,99211.00
2023-03-03T06:16:49.073Z,99208.47
2023-03-03T06:18:56.632Z,99205.25
2023-03-03T06:21:01.665Z,99211.13
2023-03-03T06:23:07.233Z,99207.81
2023-03-03T06:25:13.765Z,99217.63
2023-03-03T06:27:19.879Z,99229.13
2023-03-03T06:29:25.052Z,99230.03
2023-03-03T06:31:30.731Z,99229.06
2023-03-03T06:33:36.217Z,99236.56
2023-03-03T06:35:44.742Z,99237.38
2023-03-03T06:37:50.961Z,99234.97
2023-03-03T06:39:55.927Z,99230.84
2023-03-03T06:42:01.035Z,99235.72
2023-03-03T06:44:06.175Z,99244.00
2023-03-03T06:46:12.511Z,99249.81
2023-03-03T06:48:17.475Z,99247.38
2023-03-03T06:50:24.616Z,99255.66
2023-03-03T06:52:32.354Z,99267.28
2023-03-03T06:54:37.503Z,99261.44
2023-03-03T06:56:44.969Z,99259.06
2023-03-03T06:58:49.958Z,99265.66
2023-03-03T07:01:00.013Z,99269.84
2023-03-03T07:03:15.429Z,99261.63
2023-03-03T07:05:21.836Z,99275.78
2023-03-03T07:07:33.410Z,99268.34
2023-03-03T07:09:38.543Z,99272.56
2023-03-03T07:11:46.589Z,99266.03
2023-03-03T07:13:55.876Z,99268.59
2023-03-03T07:16:12.766Z,99271.84
2023-03-03T07:18:40.381Z,99279.50
2023-03-03T07:20:46.899Z,99280.47
2023-03-03T07:22:56.033Z,99282.94
2023-03-03T07:25:04.932Z,99284.72
2023-03-03T07:27:18.765Z,99288.69
2023-03-03T07:29:30.638Z,99287.78
2023-03-03T07:31:44.618Z,99285.34
2023-03-03T07:33:51.231Z,99292.00
2023-03-03T07:35:59.397Z,99291.34
2023-03-03T07:38:20.359Z,99294.69
2023-03-03T07:40:39.554Z,99291.31
2023-03-03T07:42:45.945Z,99292.94
2023-03-03T07:45:05.644Z,99294.69
2023-03-03T07:47:23.732Z,99294.66
2023-03-03T07:49:38.326Z,99294.97
2023-03-03T07:51:45.156Z,99303.34
2023-03-03T07:53:54.926Z,99300.94
2023-03-03T07:56:01.022Z,99305.09
2023-03-03T07:58:27.093Z,99295.13
2023-03-03T08:01:30.331Z,99287.72
2023-03-03T08:03:40.230Z,99291.94
2023-03-03T08:05:46.891Z,99282.22
2023-03-03T08:07:54.546Z,99289.78
2023-03-03T08:10:04.454Z,99287.47
2023-03-03T08:12:39.023Z,99282.66
2023-03-03T08:14:46.366Z,99289.31
2023-03-03T08:16:52.318Z,99284.50
2023-03-03T08:19:01.703Z,99282.91
2023-03-03T08:21:12.049Z,99296.19
2023-03-03T08:23:23.202Z,99289.88
2023-03-03T08:25:32.284Z,99290.56
2023-03-03T08:27:37.700Z,99296.59
2023-03-03T08:29:43.103Z,99293.50
2023-03-03T08:31:49.558Z,99293.44
2023-03-03T08:33:55.106Z,99284.78
2023-03-03T08:36:02.118Z,99295.53
2023-03-03T08:38:09.331Z,99301.34
2023-03-03T08:40:16.072Z,99293.72
2023-03-03T08:42:24.613Z,99295.13
2023-03-03T08:44:29.959Z,99298.50
2023-03-03T08:46:36.266Z,99298.72
2023-03-03T08:48:41.607Z,99305.53
2023-03-03T08:50:47.322Z,99305.56
2023-03-03T08:52:53.035Z,99302.31
2023-03-03T08:54:58.520Z,99306.38
2023-03-03T08:57:03.430Z,99312.16
2023-03-03T08:59:11.557Z,99312.94
2023-03-03T09:01:18.323Z,99318.63
2023-03-03T09:03:23.259Z,99315.25
2023-03-03T09:05:28.952Z,99314.34
2023-03-03T09:07:33.969Z,99316.94
2023-03-03T09:09:40.485Z,99318.75
2023-03-03T09:11:45.376Z,99325.16
2023-03-03T09:13:53.599Z,99328.47
2023-03-03T09:16:02.009Z,99335.09
2023-03-03T09:18:18.697Z,99333.63
2023-03-03T09:20:38.232Z,99339.97
2023-03-03T09:22:43.197Z,99338.25
2023-03-03T09:24:51.169Z,99342.56
2023-03-03T09:26:58.599Z,99340.75
2023-03-03T09:29:20.932Z,99346.44
2023-03-03T09:31:39.312Z,99353.91
2023-03-03T09:33:46.999Z,99354.88
2023-03-03T09:35:56.699Z,99351.59
2023-03-03T09:38:02.287Z,99357.94
2023-03-03T09:40:43.048Z,99359.88
2023-03-03T09:43:06.161Z,99360.31
2023-03-03T09:45:42.470Z,99357.22
2023-03-03T09:48:16.471Z,99366.47
2023-03-03T09:50:39.017Z,99370.75
2023-03-03T09:52:51.631Z,99369.72
2023-03-03T09:55:13.699Z,99372.78
2023-03-03T09:57:26.374Z,99383.47
2023-03-03T09:59:47.489Z,99375.19
2023-03-03T10:02:10.855Z,99379.41
2023-03-03T10:04:59.946Z,99382.00
2023-03-03T10:07:29.084Z,99377.19
2023-03-03T10:10:01.188Z,99375.44
2023-03-03T10:12:17.470Z,99377.16
2023-03-03T10:14:56.084Z,99373.66
2023-03-03T10:17:12.423Z,99373.72
2023-03-03T10:19:45.704Z,99368.97
2023-03-03T10:21:58.432Z,99370.75
2023-03-03T10:24:18.488Z,99377.69
2023-03-03T10:26:45.604Z,99376.91
2023-03-03T10:29:25.464Z,99379.50
2023-03-03T10:31:48.607Z,99374.56
2023-03-03T10:34:07.034Z,99363.06
2023-03-03T10:36:35.024Z,99365.56
2023-03-03T10:38:58.622Z,99372.97
2023-03-03T10:41:30.110Z,99376.28
2023-03-03T10:43:56.963Z,99369.94
2023-03-03T10:46:28.439Z,99364.88
2023-03-03T10:49:04.942Z,99364.09
2023-03-03T10:51:29.306Z,99370.78
2023-03-03T10:53:41.507Z,99376.63
2023-03-03T10:55:57.808Z,99380.00
2023-03-03T10:58:35.399Z,99375.75
2023-03-03T11:00:47.390Z,99374.78
2023-03-03T11:03:40.812Z,99375.78
2023-03-03T11:05:51.004Z,99372.81
2023-03-03T11:08:03.262Z,99379.56
2023-03-03T11:10:30.953Z,99369.75
2023-03-03T11:12:50.241Z,99369.81
2023-03-03T11:15:18.390Z,99364.06
2023-03-03T11:17:34.514Z,99358.44
2023-03-03T11:20:01.179Z,99365.75
2023-03-03T11:22:21.266Z,99361.00
2023-03-03T11:24:52.361Z,99367.50
2023-03-03T11:27:29.537Z,99351.94
2023-03-03T11:29:53.513Z,99357.03
2023-03-03T11:32:02.520Z,99350.47
2023-03-03T11:34:21.957Z,99342.13
2023-03-03T11:36:35.212Z,99341.44
2023-03-03T11:38:56.611Z,99343.97
2023-03-03T11:41:10.270Z,99339.03
2023-03-03T11:43:34.107Z,99335.69
2023-03-03T11:45:46.692Z,99334.03
2023-03-03T11:48:03.569Z,99331.53
2023-03-03T11:50:19.051Z,99338.97
2023-03-03T11:52:36.422Z,99330.66
2023-03-03T11:54:52.186Z,99322.31
2023-03-03T11:57:16.892Z,99319.78
2023-03-03T11:59:50.667Z,99322.31
2023-03-03T12:01:58.673Z,99317.38
2023-03-03T12:04:07.147Z,99313.19
2023-03-03T12:06:26.452Z,99314.84
2023-03-03T12:08:48.233Z,99310.69
2023-03-03T12:11:03.882Z,99304.00
2023-03-03T12:13:24.270Z,99299.81
2023-03-03T12:15:40.184Z,99303.16
2023-03-03T12:18:29.127Z,99297.28
2023-03-03T12:20:42.566Z,99292.28
2023-03-03T12:23:06.412Z,99291.44
2023-03-03T12:25:28.145Z,99298.91
2023-03-03T12:27:43.082Z,99290.59
2023-03-03T12:30:06.392Z,99288.88
2023-03-03T12:32:24.592Z,99280.41
2023-03-03T12:34:39.968Z,99280.53
2023-03-03T12:37:06.760Z,99277.25
2023-03-03T12:39:34.045Z,99269.53
2023-03-03T12:41:49.088Z,99270.19
2023-03-03T12:44:03.680Z,99254.94
2023-03-03T12:46:28.467Z,99256.66
2023-03-03T12:48:44.108Z,99248.06
2023-03-03T12:51:07.154Z,99252.81
2023-03-03T12:53:27.193Z,99257.44
2023-03-03T12:55:46.433Z,99242.94
2023-03-03T12:58:01.653Z,99250.59
2023-03-03T13:00:27.323Z,99243.91
2023-03-03T13:02:46.393Z,99237.03
2023-03-03T13:04:59.988Z,99237.97
2023-03-03T13:07:13.937Z,99241.88
2023-03-03T13:09:35.429Z,99233.94
2023-03-03T13:11:56.582Z,99237.81
2023-03-03T13:14:14.393Z,99238.84
2023-03-03T13:16:40.676Z,99236.78
2023-03-03T13:18:59.164Z,99234.09
2023-03-03T13:21:13.537Z,99233.22
2023-03-03T13:23:33.934Z,99229.47
2023-03-03T13:25:56.266Z,99232.81
2023-03-03T13:28:08.840Z,99230.06
2023-03-03T13:30:22.994Z,99235.22
2023-03-03T13:32:39.731Z,99231.53
2023-03-03T13:34:59.085Z,99237.28
2023-03-03T13:37:11.067Z,99232.31
2023-03-03T13:39:24.890Z,99223.78
2023-03-03T13:41:39.100Z,99229.50
2023-03-03T13:43:52.370Z,99227.41
2023-03-03T13:46:09.427Z,99229.09
2023-03-03T13:48:40.236Z,99235.72
2023-03-03T13:50:54.348Z,99235.22
2023-03-03T13:53:22.890Z,99228.88
2023-03-03T13:55:36.070Z,99228.94
2023-03-03T13:58:03.007Z,99225.16
2023-03-03T14:00:23.739Z,99220.28
2023-03-03T14:03:11.493Z,99220.75
2023-03-03T14:05:20.287Z,99219.81
2023-03-03T14:07:37.049Z,99209.56
2023-03-03T14:09:56.949Z,99205.13
2023-03-03T14:12:12.030Z,99197.56
2023-03-03T14:14:40.168Z,99195.91
2023-03-03T14:16:54.511Z,99195.16
2023-03-03T14:19:05.350Z,99199.06
2023-03-03T14:21:17.524Z,99193.69
2023-03-03T14:23:34.043Z,99191.09
2023-03-03T14:25:59.166Z,99189.66
2023-03-03T14:28:14.150Z,99179.41
2023-03-03T14:30:36.226Z,99176.81
2023-03-03T14:32:45.605Z,99178.09
2023-03-03T14:35:01.334Z,99182.16
2023-03-03T14:37:26.494Z,99177.34
2023-03-03T14:39:38.865Z,99183.81
2023-03-03T14:41:45.564Z,99173.88
2023-03-03T14:44:02.737Z,99180.69
2023-03-03T14:46:41.937Z,99175.72
2023-03-03T14:48:55.157Z,99177.16
2023-03-03T14:51:04.779Z,99169.97
2023-03-03T14:53:22.853Z,99173.06
2023-03-03T14:55:42.222Z,99162.25
2023-03-03T14:57:48.973Z,99164.03
2023-03-03T15:00:11.020Z,99167.78
2023-03-03T15:02:37.673Z,99163.66
2023-03-03T15:04:43.224Z,99161.94
2023-03-03T15:06:51.199Z,99162.69
2023-03-03T15:08:56.573Z,99163.47
2023-03-03T15:11:23.080Z,99171.66
2023-03-03T15:13:37.935Z,99169.28
2023-03-03T15:15:55.165Z,99153.56
2023-03-03T15:18:04.550Z,99161.19
2023-03-03T15:20:45.250Z,99167.06
2023-03-03T15:22:53.756Z,99164.88
2023-03-03T15:25:06.832Z,99168.63
2023-03-03T15:27:21.995Z,99176.25
2023-03-03T15:29:33.229Z,99175.53
2023-03-03T15:31:47.396Z,99178.25
2023-03-03T15:34:12.828Z,99173.13
2023-03-03T15:36:29.429Z,99167.63
2023-03-03T15:38:52.848Z,99172.13
2023-03-03T15:41:11.484Z,99176.34
2023-03-03T15:43:29.910Z,99162.91
2023-03-03T15:45:41.502Z,99159.47
2023-03-03T15:48:19.449Z,99166.13
2023-03-03T15:50:48.449Z,99170.53
2023-03-03T15:53:05.496Z,99163.28
2023-03-03T15:55:30.640Z,99161.78
2023-03-03T15:57:50.821Z,99161.72
2023-03-03T16:00:16.252Z,99159.94
2023-03-03T16:02:25.144Z,99163.81
2023-03-03T16:04:37.340Z,99164.19
2023-03-03T16:06:52.928Z,99162.94
2023-03-03T16:09:05.469Z,99161.44
2023-03-03T16:11:18.927Z,99160.13
2023-03-03T16:13:35.336Z,99163.19
2023-03-03T16:16:07.924Z,99157.94
2023-03-03T16:18:26.056Z,99156.59
2023-03-03T16:20:40.668Z,99159.06
2023-03-03T16:23:04.241Z,99164.16
2023-03-03T16:25:28.371Z,99166.94
2023-03-03T16:27:38.385Z,99169.66
2023-03-03T16:32:27.205Z,99177.19
2023-03-03T16:34:40.424Z,99174.63
2023-03-03T16:37:03.357Z,99185.00
2023-03-03T16:39:14.219Z,99183.03
2023-03-03T16:41:29.600Z,99196.59
2023-03-03T16:43:47.118Z,99200.91
2023-03-03T16:45:52.539Z,99203.13
2023-03-03T16:48:25.877Z,99209.78
2023-03-03T16:50:44.416Z,99211.97
2023-03-03T16:53:00.685Z,99227.28
2023-03-03T16:55:15.742Z,99224.03
2023-03-03T16:57:30.551Z,99224.03
2023-03-03T16:59:49.287Z,99235.69
2023-03-03T17:02:04.202Z,99238.06
2023-03-03T17:04:21.600Z,99239.59
2023-03-03T17:06:41.116Z,99245.31
2023-03-03T17:09:32.148Z,99238.53
2023-03-03T17:12:01.185Z,99243.34
2023-03-03T17:14:34.887Z,99252.28
2023-03-03T17:16:52.612Z,99245.44
2023-03-03T17:19:12.445Z,99258.56
2023-03-03T17:21:32.014Z,99261.66
2023-03-03T17:23:52.796Z,99268.88
2023-03-03T17:26:12.658Z,99268.72
2023-03-03T17:28:37.328Z,99274.41
2023-03-03T17:30:49.599Z,99275.88
2023-03-03T17:33:15.993Z,99274.88
2023-03-03T17:35:38.737Z,99275.53
2023-03-03T17:40:16.684Z,99276.84
2023-03-03T17:42:34.654Z,99293.31
2023-03-03T17:44:47.313Z,99290.69
2023-03-03T17:46:56.786Z,99297.25
2023-03-03T17:49:38.633Z,99298.84
2023-03-03T17:52:34.603Z,99302.69
2023-03-03T17:55:14.777Z,99305.75
2023-03-03T17:57:41.207Z,99308.19
2023-03-03T18:00:06.047Z,99306.44
2023-03-03T18:03:22.290Z,99310.16
2023-03-03T18:05:58.306Z,99310.66
2023-03-03T18:08:20.791Z,99311.28
2023-03-03T18:11:13.394Z,99312.75
2023-03-03T18:16:12.465Z,99309.09
2023-03-03T18:18:44.176Z,99318.06
2023-03-03T18:21:05.561Z,99316.25
2023-03-03T18:23:35.166Z,99317.44
2023-03-03T18:25:58.711Z,99317.16
2023-03-03T18:28:25.797Z,99320.91
2023-03-03T18:30:35.291Z,99321.44
2023-03-03T18:32:48.209Z,99324.44
2023-03-03T18:35:25.871Z,99330.66
2023-03-03T18:37:42.949Z,99331.28
2023-03-03T18:39:50.141Z,99338.75
2023-03-03T18:42:37.736Z,99344.56
2023-03-03T18:44:48.315Z,99345.94
2023-03-03T18:46:58.887Z,99346.50
2023-03-03T18:49:09.091Z,99350.06
2023-03-03T18:51:14.046Z,99351.84
2023-03-03T18:53:30.034Z,99349.16
2023-03-03T18:55:43.578Z,99353.34
2023-03-03T18:58:33.354Z,99351.50
2023-03-03T19:00:55.074Z,99353.91
2023-03-03T19:03:02.506Z,99362.41
2023-03-03T19:05:23.417Z,99361.81
2023-03-03T19:07:32.104Z,99357.88
2023-03-03T19:09:57.312Z,99358.44
2023-03-03T19:12:02.495Z,99366.59
2023-03-03T19:14:34.284Z,99358.84
2023-03-03T19:16:42.467Z,99362.41
2023-03-03T19:19:07.252Z,99366.16
2023-03-03T19:21:25.064Z,99362.59
2023-03-03T19:23:59.833Z,99365.66
2023-03-03T19:26:38.742Z,99366.03
2023-03-03T19:28:52.320Z,99370.88
2023-03-03T19:31:00.664Z,99370.59
2023-03-03T19:33:45.620Z,99369.94
2023-03-03T19:36:42.717Z,99369.19
2023-03-03T19:39:05.245Z,99364.88
2023-03-03T19:41:26.857Z,99362.22
2023-03-03T19:43:46.426Z,99360.28
2023-03-03T19:46:06.142Z,99361.78
2023-03-03T19:48:29.749Z,99369.56
2023-03-03T19:50:52.505Z,99363.91
2023-03-03T19:53:10.362Z,99361.09
2023-03-03T19:55:29.117Z,99358.69
2023-03-03T19:57:48.891Z,99359.56
2023-03-03T20:00:01.118Z,99363.63
2023-03-03T20:02:39.902Z,99367.44
2023-03-03T20:05:13.222Z,99369.56
2023-03-03T20:07:31.349Z,99369.16
2023-03-03T20:09:44.614Z,99365.16
2023-03-03T20:12:04.814Z,99374.31
2023-03-03T20:14:32.057Z,99376.00
2023-03-03T20:16:42.821Z,99372.47
2023-03-03T20:19:23.065Z,99373.84
2023-03-03T20:21:46.840Z,99371.97
2023-03-03T20:24:07.547Z,99370.56
2023-03-03T20:26:25.121Z,99370.78
2023-03-03T20:29:07.419Z,99384.00
2023-03-03T20:31:22.412Z,99377.59
2023-03-03T20:33:48.439Z,99379.88
2023-03-03T20:36:07.145Z,99380.72
2023-03-03T20:38:25.754Z,99383.50
2023-03-03T20:40:38.579Z,99382.81
2023-03-03T20:42:54.844Z,99385.00
2023-03-03T20:45:32.629Z,99387.72
2023-03-03T20:47:51.891Z,99387.41
2023-03-03T20:50:19.641Z,99391.31
2023-03-03T20:52:38.661Z,99389.72
2023-03-03T20:54:54.674Z,99394.03
2023-03-03T20:57:09.840Z,99395.72
2023-03-03T20:59:26.908Z,99408.31
2023-03-03T21:01:43.409Z,99398.13
2023-03-03T21:03:48.672Z,99408.00
2023-03-03T21:06:01.139Z,99407.66
2023-03-03T21:08:08.521Z,99403.41
2023-03-03T21:10:24.030Z,99402.97
2023-03-03T21:12:33.375Z,99403.97
2023-03-03T21:14:39.541Z,99409.91
2023-03-03T21:16:44.595Z,99406.84
2023-03-03T21:19:00.249Z,99404.97
2023-03-03T21:21:06.359Z,99412.31
2023-03-03T21:23:13.092Z,99411.91
2023-03-03T21:25:52.099Z,99413.63
2023-03-03T21:28:16.073Z,99406.19
2023-03-03T21:30:21.912Z,99414.13
2023-03-03T21:32:40.405Z,99406.13
2023-03-03T21:34:45.906Z,99401.69
2023-03-03T21:36:52.229Z,99405.31
2023-03-03T21:38:59.082Z,99401.84
2023-03-03T21:41:07.946Z,99398.34
2023-03-03T21:43:36.232Z,99402.19
2023-03-03T21:45:42.331Z,99399.13
2023-03-03T21:47:47.363Z,99397.81
2023-03-03T21:49:54.281Z,99407.81
2023-03-03T21:52:01.462Z,99405.06
2023-03-03T21:54:07.008Z,99413.38
2023-03-03T21:56:15.757Z,99411.69
2023-03-03T21:58:20.792Z,99396.91
2023-03-03T22:00:26.996Z,99396.16
2023-03-03T22:02:34.781Z,99389.81
2023-03-03T22:04:41.081Z,99391.50
2023-03-03T22:06:46.399Z,99392.44
2023-03-03T22:08:51.339Z,99384.22
2023-03-03T22:10:56.652Z,99392.50
2023-03-03T22:13:05.010Z,99392.50
2023-03-03T22:15:11.151Z,99389.44
2023-03-03T22:17:16.462Z,99392.91
2023-03-03T22:19:21.478Z,99389.69
2023-03-03T22:21:26.803Z,99382.47
2023-03-03T22:23:32.113Z,99385.00
2023-03-03T22:25:37.050Z,99392.50
2023-03-03T22:27:42.369Z,99392.50
2023-03-03T22:29:49.954Z,99394.97
2023-03-03T22:31:57.272Z,99385.13
2023-03-03T22:34:02.488Z,99387.75
2023-03-03T22:36:08.779Z,99394.41
2023-03-03T22:38:13.720Z,99403.44
2023-03-03T22:40:19.282Z,99391.03
2023-03-03T22:42:25.099Z,99396.78
2023-03-03T22:44:30.004Z,99396.03
2023-03-03T22:46:37.586Z,99395.16
2023-03-03T22:48:42.814Z,99390.19
2023-03-03T22:50:47.767Z,99397.44
2023-03-03T22:52:54.900Z,99393.28
2023-03-03T22:55:00.443Z,99396.56
2023-03-03T22:57:06.039Z,99396.47
2023-03-03T22:59:11.091Z,99389.13
2023-03-03T23:01:16.055Z,99390.91
2023-03-03T23:03:23.902Z,99385.13
2023-03-03T23:05:29.906Z,99382.00
2023-03-03T23:07:35.728Z,99382.75
2023-03-03T23:09:40.661Z,99383.38
2023-03-03T23:11:46.281Z,99386.97
2023-03-03T23:13:51.311Z,99381.13
2023-03-03T23:16:00.469Z,99377.69
2023-03-03T23:18:05.877Z,99386.72
2023-03-03T23:20:16.564Z,99385.25
2023-03-03T23:22:22.206Z,99383.63
2023-03-03T23:24:28.000Z,99381.97
2023-03-03T23:26:33.457Z,99381.13
2023-03-03T23:28:38.922Z,99377.75
2023-03-03T23:30:43.956Z,99372.09
2023-03-03T23:32:50.338Z,99374.66
2023-03-03T23:34:56.366Z,99377.19
2023-03-03T23:37:04.263Z,99374.09
2023-03-03T23:39:12.217Z,99374.91
2023-03-03T23:41:20.749Z,99369.06
2023-03-03T23:43:25.761Z,99376.59
2023-03-03T23:45:30.812Z,99369.13
2023-03-03T23:47:39.035Z,99362.47
2023-03-03T23:51:51.273Z,99363.97
2023-03-03T23:53:59.666Z,99354.81
2023-03-03T23:56:04.808Z,99364.69
2023-03-03T23:58:11.270Z,99364.03
